Aérodrome :
LOGIN :

S'inscrire | Disclaimer

   EN    FR    IT 

 










Légende :    VFR   VFR Marginal   IFR   IFR Intensif   IFR Très Intensif
Visi : 
Plafond : 
>= 8 km
>= 3000ft
5 à 8 km
1000 à 3000 ft
1500m à 5 km
500 à 1000 ft
800 à 1500m
200 à 500 ft
< 800m
< 200 ft
Symboles :   Orages  Brouillard  Fortes neiges  Fortes précipitations  Vent > 20 kt
SIGMETs :   Divers  Orages  Givrage  Turbulence  Onde Orograph.  Cendres Volcan.







- Altitude de l'aérodrome : 171 ft
- Code IATA : EGC
- Voir les cartes d'approche


LFBE - Bergerac

DERNIER METAR :
  • 232300Z AUTO VRB02KT CAVOK 21/18 Q1017

METARs EXPIRÉS :
  • 232230Z AUTO VRB02KT 9999 ///TCU 21/18 Q1017
  • 232200Z AUTO VRB01KT 9999 VCTS ///CB 21/18 Q1017
  • 232130Z AUTO 03002KT 9999 TS ///CB 20/18 Q1017
  • 232100Z AUTO 00000KT 9999 ///TCU 21/17 Q1017
  • 232030Z AUTO 00000KT 9999 ///CB 21/17 Q1017 BECMG NSC

TAF TAF LFBE
Valide du 23 à 12h jusqu'au 24 à 12h UTC


231100Z 2312/2412 VRB02KT 9999 BKN025
BECMG 2312/2314 CAVOK
Pas de NOTAMs connus pour ce terrain.
1 SIGMET publié pour la FIR Bordeaux (LFBB) :
 
Orages noyés dans la masse
LFBB SIGMET 11 VALID 232200/240200 LFPW
LFBB BORDEAUX FIR/UIR EMBD TS OBS WI N4230 E00145 - N4300 W00145 - N4515 E00030 - N4515 E00215 TOP FL400 MOV NE 10KT NC=



MET'MAP, la Météo Aéronautique d'un coup d'oeil ! - Copyright ORBIFLY Décembre 2007 - Disclaimer

ORBIFLY MET'MAP TEAM :

Programmation & Développement : Alexandra Zaïnal
Conception & Développement : Baudouin d'Aumeries
Co-Programmation & Développement : Marc-Olivier Méhu
Soutien technique & logistique : Manuel Goepfert

Contact : metmap@orbifly.com




SOURCES & CREDITS :

   NOAA